sensor_id;sensor_type;location;lat;lon;timestamp;P1;durP1;ratioP1;P2;durP2;ratioP2
17595;SDS011;8916;47.086;15.920;2023-02-24T00:02:12;111.85;;;51.58;;
17595;SDS011;8916;47.086;15.920;2023-02-24T00:04:46;102.38;;;49.58;;
17595;SDS011;8916;47.086;15.920;2023-02-24T00:07:18;107.78;;;51.53;;
17595;SDS011;8916;47.086;15.920;2023-02-24T00:09:47;104.30;;;48.40;;
17595;SDS011;8916;47.086;15.920;2023-02-24T00:12:18;106.05;;;48.47;;
17595;SDS011;8916;47.086;15.920;2023-02-24T00:14:47;110.90;;;50.40;;
17595;SDS011;8916;47.086;15.920;2023-02-24T00:17:16;112.00;;;50.65;;
17595;SDS011;8916;47.086;15.920;2023-02-24T00:19:45;111.97;;;50.63;;
17595;SDS011;8916;47.086;15.920;2023-02-24T00:22:15;111.72;;;51.75;;
17595;SDS011;8916;47.086;15.920;2023-02-24T00:24:44;112.05;;;52.30;;
17595;SDS011;8916;47.086;15.920;2023-02-24T00:27:13;99.55;;;48.75;;
17595;SDS011;8916;47.086;15.920;2023-02-24T00:29:44;103.32;;;47.30;;
17595;SDS011;8916;47.086;15.920;2023-02-24T00:32:13;101.78;;;46.72;;
17595;SDS011;8916;47.086;15.920;2023-02-24T00:34:43;108.82;;;51.15;;
17595;SDS011;8916;47.086;15.920;2023-02-24T00:37:14;109.03;;;50.35;;
17595;SDS011;8916;47.086;15.920;2023-02-24T00:39:44;106.32;;;52.13;;
17595;SDS011;8916;47.086;15.920;2023-02-24T00:42:13;102.88;;;52.35;;
17595;SDS011;8916;47.086;15.920;2023-02-24T00:44:44;107.90;;;52.42;;
17595;SDS011;8916;47.086;15.920;2023-02-24T00:47:15;121.82;;;54.50;;
17595;SDS011;8916;47.086;15.920;2023-02-24T00:49:44;109.07;;;53.95;;
17595;SDS011;8916;47.086;15.920;2023-02-24T00:52:15;115.70;;;55.88;;
17595;SDS011;8916;47.086;15.920;2023-02-24T00:54:47;117.35;;;54.30;;
17595;SDS011;8916;47.086;15.920;2023-02-24T00:57:17;110.45;;;52.85;;
17595;SDS011;8916;47.086;15.920;2023-02-24T00:59:50;109.32;;;53.17;;
17595;SDS011;8916;47.086;15.920;2023-02-24T01:02:19;109.28;;;52.97;;
17595;SDS011;8916;47.086;15.920;2023-02-24T01:04:48;105.30;;;51.47;;
17595;SDS011;8916;47.086;15.920;2023-02-24T01:07:18;118.65;;;54.28;;
17595;SDS011;8916;47.086;15.920;2023-02-24T01:09:48;106.85;;;52.10;;
17595;SDS011;8916;47.086;15.920;2023-02-24T01:12:18;111.20;;;51.25;;
17595;SDS011;8916;47.086;15.920;2023-02-24T01:15:07;105.05;;;50.75;;
17595;SDS011;8916;47.086;15.920;2023-02-24T01:17:38;103.00;;;50.63;;
17595;SDS011;8916;47.086;15.920;2023-02-24T01:20:10;100.60;;;49.97;;
17595;SDS011;8916;47.086;15.920;2023-02-24T01:22:45;115.03;;;52.92;;
17595;SDS011;8916;47.086;15.920;2023-02-24T01:25:16;107.50;;;53.38;;
17595;SDS011;8916;47.086;15.920;2023-02-24T01:27:47;115.40;;;54.20;;
17595;SDS011;8916;47.086;15.920;2023-02-24T01:30:18;116.38;;;58.20;;
17595;SDS011;8916;47.086;15.920;2023-02-24T01:32:47;124.38;;;57.50;;
17595;SDS011;8916;47.086;15.920;2023-02-24T01:35:17;119.70;;;56.20;;
17595;SDS011;8916;47.086;15.920;2023-02-24T01:37:47;106.47;;;52.40;;
17595;SDS011;8916;47.086;15.920;2023-02-24T01:40:16;113.93;;;53.95;;
17595;SDS011;8916;47.086;15.920;2023-02-24T01:42:48;107.32;;;51.85;;
17595;SDS011;8916;47.086;15.920;2023-02-24T01:45:20;108.35;;;51.50;;
17595;SDS011;8916;47.086;15.920;2023-02-24T01:47:56;114.53;;;52.83;;
17595;SDS011;8916;47.086;15.920;2023-02-24T01:50:32;108.88;;;52.17;;
17595;SDS011;8916;47.086;15.920;2023-02-24T01:53:05;121.63;;;55.40;;
17595;SDS011;8916;47.086;15.920;2023-02-24T01:55:39;108.18;;;52.70;;
17595;SDS011;8916;47.086;15.920;2023-02-24T01:58:15;117.05;;;55.30;;
17595;SDS011;8916;47.086;15.920;2023-02-24T02:00:55;129.32;;;56.45;;
17595;SDS011;8916;47.086;15.920;2023-02-24T02:03:26;124.70;;;57.42;;
17595;SDS011;8916;47.086;15.920;2023-02-24T02:05:59;134.25;;;57.95;;
17595;SDS011;8916;47.086;15.920;2023-02-24T02:08:31;115.28;;;54.00;;
17595;SDS011;8916;47.086;15.920;2023-02-24T02:11:04;101.50;;;51.60;;
17595;SDS011;8916;47.086;15.920;2023-02-24T02:13:35;96.60;;;50.22;;
17595;SDS011;8916;47.086;15.920;2023-02-24T02:19:17;146.38;;;60.40;;
17595;SDS011;8916;47.086;15.920;2023-02-24T02:22:36;130.95;;;58.90;;
17595;SDS011;8916;47.086;15.920;2023-02-24T02:25:28;130.48;;;60.65;;
17595;SDS011;8916;47.086;15.920;2023-02-24T02:28:24;138.85;;;63.85;;
17595;SDS011;8916;47.086;15.920;2023-02-24T02:34:38;116.85;;;56.75;;
17595;SDS011;8916;47.086;15.920;2023-02-24T02:37:18;111.35;;;54.70;;
17595;SDS011;8916;47.086;15.920;2023-02-24T02:39:57;107.70;;;52.30;;
17595;SDS011;8916;47.086;15.920;2023-02-24T02:42:43;101.57;;;50.45;;
17595;SDS011;8916;47.086;15.920;2023-02-24T02:45:21;111.90;;;53.05;;
17595;SDS011;8916;47.086;15.920;2023-02-24T02:47:58;117.38;;;52.55;;
17595;SDS011;8916;47.086;15.920;2023-02-24T02:50:36;108.22;;;52.70;;
17595;SDS011;8916;47.086;15.920;2023-02-24T02:53:12;119.47;;;53.90;;
17595;SDS011;8916;47.086;15.920;2023-02-24T02:55:51;113.07;;;55.97;;
17595;SDS011;8916;47.086;15.920;2023-02-24T02:58:28;123.50;;;58.13;;
17595;SDS011;8916;47.086;15.920;2023-02-24T03:01:03;113.20;;;57.00;;
17595;SDS011;8916;47.086;15.920;2023-02-24T03:03:34;112.72;;;55.45;;
17595;SDS011;8916;47.086;15.920;2023-02-24T03:06:11;133.35;;;59.83;;
17595;SDS011;8916;47.086;15.920;2023-02-24T03:08:47;134.48;;;63.60;;
17595;SDS011;8916;47.086;15.920;2023-02-24T03:11:22;131.68;;;62.28;;
17595;SDS011;8916;47.086;15.920;2023-02-24T03:13:55;138.15;;;63.72;;
17595;SDS011;8916;47.086;15.920;2023-02-24T03:16:26;134.00;;;65.55;;
17595;SDS011;8916;47.086;15.920;2023-02-24T03:18:57;140.02;;;65.10;;
17595;SDS011;8916;47.086;15.920;2023-02-24T03:21:33;140.55;;;62.72;;
17595;SDS011;8916;47.086;15.920;2023-02-24T03:24:07;126.43;;;60.22;;
17595;SDS011;8916;47.086;15.920;2023-02-24T03:26:39;127.85;;;57.30;;
17595;SDS011;8916;47.086;15.920;2023-02-24T03:29:17;114.38;;;53.80;;
17595;SDS011;8916;47.086;15.920;2023-02-24T03:31:54;110.07;;;55.17;;
17595;SDS011;8916;47.086;15.920;2023-02-24T03:34:32;118.80;;;56.33;;
17595;SDS011;8916;47.086;15.920;2023-02-24T03:37:15;122.75;;;57.22;;
17595;SDS011;8916;47.086;15.920;2023-02-24T03:39:52;121.80;;;56.25;;
17595;SDS011;8916;47.086;15.920;2023-02-24T03:42:25;120.18;;;57.42;;
17595;SDS011;8916;47.086;15.920;2023-02-24T03:45:00;123.82;;;59.85;;
17595;SDS011;8916;47.086;15.920;2023-02-24T03:47:32;131.60;;;62.25;;
17595;SDS011;8916;47.086;15.920;2023-02-24T03:50:08;131.07;;;64.25;;
17595;SDS011;8916;47.086;15.920;2023-02-24T03:52:45;134.02;;;64.28;;
17595;SDS011;8916;47.086;15.920;2023-02-24T03:55:25;133.15;;;64.63;;
17595;SDS011;8916;47.086;15.920;2023-02-24T03:58:08;142.20;;;65.85;;
17595;SDS011;8916;47.086;15.920;2023-02-24T04:00:47;126.53;;;61.03;;
17595;SDS011;8916;47.086;15.920;2023-02-24T04:03:25;128.35;;;62.53;;
17595;SDS011;8916;47.086;15.920;2023-02-24T04:06:16;130.57;;;60.78;;
17595;SDS011;8916;47.086;15.920;2023-02-24T04:08:58;123.55;;;60.03;;
17595;SDS011;8916;47.086;15.920;2023-02-24T04:11:46;132.95;;;61.05;;
17595;SDS011;8916;47.086;15.920;2023-02-24T04:14:23;133.52;;;62.58;;
17595;SDS011;8916;47.086;15.920;2023-02-24T04:16:59;121.93;;;58.58;;
17595;SDS011;8916;47.086;15.920;2023-02-24T04:19:36;119.40;;;55.97;;
17595;SDS011;8916;47.086;15.920;2023-02-24T04:22:11;116.95;;;55.58;;
17595;SDS011;8916;47.086;15.920;2023-02-24T04:24:45;119.13;;;55.20;;
17595;SDS011;8916;47.086;15.920;2023-02-24T04:27:17;109.07;;;50.78;;
17595;SDS011;8916;47.086;15.920;2023-02-24T04:29:50;111.30;;;55.33;;
17595;SDS011;8916;47.086;15.920;2023-02-24T04:32:23;107.95;;;52.55;;
17595;SDS011;8916;47.086;15.920;2023-02-24T04:35:00;100.93;;;50.90;;
17595;SDS011;8916;47.086;15.920;2023-02-24T04:37:35;99.85;;;51.65;;
17595;SDS011;8916;47.086;15.920;2023-02-24T04:40:08;108.35;;;52.33;;
17595;SDS011;8916;47.086;15.920;2023-02-24T04:42:43;100.25;;;49.72;;
17595;SDS011;8916;47.086;15.920;2023-02-24T04:45:16;108.30;;;54.13;;
17595;SDS011;8916;47.086;15.920;2023-02-24T04:47:49;119.63;;;54.90;;
17595;SDS011;8916;47.086;15.920;2023-02-24T04:50:23;125.30;;;56.63;;
17595;SDS011;8916;47.086;15.920;2023-02-24T04:52:53;114.80;;;55.83;;
17595;SDS011;8916;47.086;15.920;2023-02-24T04:55:29;111.35;;;54.90;;
17595;SDS011;8916;47.086;15.920;2023-02-24T04:58:00;111.10;;;54.67;;
17595;SDS011;8916;47.086;15.920;2023-02-24T05:00:30;111.10;;;54.45;;
17595;SDS011;8916;47.086;15.920;2023-02-24T05:03:02;104.40;;;52.55;;
17595;SDS011;8916;47.086;15.920;2023-02-24T05:05:34;114.82;;;54.30;;
17595;SDS011;8916;47.086;15.920;2023-02-24T05:08:03;107.18;;;53.78;;
17595;SDS011;8916;47.086;15.920;2023-02-24T05:10:37;108.43;;;55.20;;
17595;SDS011;8916;47.086;15.920;2023-02-24T05:13:08;113.38;;;54.58;;
17595;SDS011;8916;47.086;15.920;2023-02-24T05:15:41;118.20;;;53.78;;
17595;SDS011;8916;47.086;15.920;2023-02-24T05:18:13;112.25;;;55.58;;
17595;SDS011;8916;47.086;15.920;2023-02-24T05:20:47;107.35;;;52.97;;
17595;SDS011;8916;47.086;15.920;2023-02-24T05:23:36;112.93;;;50.38;;
17595;SDS011;8916;47.086;15.920;2023-02-24T05:26:12;98.20;;;49.53;;
17595;SDS011;8916;47.086;15.920;2023-02-24T05:28:45;97.68;;;47.58;;
17595;SDS011;8916;47.086;15.920;2023-02-24T05:31:19;91.82;;;46.80;;
17595;SDS011;8916;47.086;15.920;2023-02-24T05:33:53;95.68;;;48.75;;
17595;SDS011;8916;47.086;15.920;2023-02-24T05:36:26;110.97;;;51.20;;
17595;SDS011;8916;47.086;15.920;2023-02-24T05:38:58;111.47;;;52.33;;
17595;SDS011;8916;47.086;15.920;2023-02-24T05:41:34;114.82;;;56.00;;
17595;SDS011;8916;47.086;15.920;2023-02-24T05:44:06;131.13;;;61.33;;
17595;SDS011;8916;47.086;15.920;2023-02-24T05:46:40;132.48;;;64.25;;
17595;SDS011;8916;47.086;15.920;2023-02-24T05:49:13;138.10;;;65.53;;
17595;SDS011;8916;47.086;15.920;2023-02-24T05:51:50;151.88;;;69.65;;
17595;SDS011;8916;47.086;15.920;2023-02-24T05:54:22;152.70;;;70.10;;
17595;SDS011;8916;47.086;15.920;2023-02-24T05:56:58;172.18;;;74.78;;
17595;SDS011;8916;47.086;15.920;2023-02-24T05:59:30;159.35;;;75.78;;
17595;SDS011;8916;47.086;15.920;2023-02-24T06:02:00;160.32;;;75.38;;
17595;SDS011;8916;47.086;15.920;2023-02-24T06:04:34;160.38;;;74.60;;
17595;SDS011;8916;47.086;15.920;2023-02-24T06:07:12;140.45;;;68.78;;
17595;SDS011;8916;47.086;15.920;2023-02-24T06:09:46;146.90;;;67.68;;
17595;SDS011;8916;47.086;15.920;2023-02-24T06:12:22;151.20;;;69.78;;
17595;SDS011;8916;47.086;15.920;2023-02-24T06:14:53;137.23;;;67.07;;
17595;SDS011;8916;47.086;15.920;2023-02-24T06:17:24;123.50;;;61.97;;
17595;SDS011;8916;47.086;15.920;2023-02-24T06:19:54;144.80;;;59.63;;
17595;SDS011;8916;47.086;15.920;2023-02-24T06:22:24;222.77;;;60.45;;
17595;SDS011;8916;47.086;15.920;2023-02-24T06:24:55;156.18;;;56.75;;
17595;SDS011;8916;47.086;15.920;2023-02-24T06:27:26;137.77;;;59.13;;
17595;SDS011;8916;47.086;15.920;2023-02-24T06:29:55;122.22;;;55.78;;
17595;SDS011;8916;47.086;15.920;2023-02-24T06:32:25;111.80;;;52.30;;
17595;SDS011;8916;47.086;15.920;2023-02-24T06:34:54;100.95;;;49.88;;
17595;SDS011;8916;47.086;15.920;2023-02-24T06:37:25;88.50;;;44.63;;
17595;SDS011;8916;47.086;15.920;2023-02-24T06:39:56;94.68;;;45.35;;
17595;SDS011;8916;47.086;15.920;2023-02-24T06:42:27;91.72;;;45.60;;
17595;SDS011;8916;47.086;15.920;2023-02-24T06:44:56;91.97;;;47.15;;
17595;SDS011;8916;47.086;15.920;2023-02-24T06:47:26;99.75;;;49.35;;
17595;SDS011;8916;47.086;15.920;2023-02-24T06:49:55;106.13;;;50.63;;
17595;SDS011;8916;47.086;15.920;2023-02-24T06:52:24;106.47;;;51.63;;
17595;SDS011;8916;47.086;15.920;2023-02-24T06:54:53;104.47;;;51.13;;
17595;SDS011;8916;47.086;15.920;2023-02-24T06:57:22;122.57;;;55.83;;
17595;SDS011;8916;47.086;15.920;2023-02-24T06:59:52;129.02;;;60.13;;
17595;SDS011;8916;47.086;15.920;2023-02-24T07:02:22;136.45;;;60.88;;
17595;SDS011;8916;47.086;15.920;2023-02-24T07:04:56;127.07;;;60.60;;
17595;SDS011;8916;47.086;15.920;2023-02-24T07:07:25;130.82;;;61.17;;
17595;SDS011;8916;47.086;15.920;2023-02-24T07:09:55;125.15;;;60.33;;
17595;SDS011;8916;47.086;15.920;2023-02-24T07:12:24;124.93;;;59.05;;
17595;SDS011;8916;47.086;15.920;2023-02-24T07:14:54;127.00;;;59.55;;
17595;SDS011;8916;47.086;15.920;2023-02-24T07:17:24;118.45;;;55.33;;
17595;SDS011;8916;47.086;15.920;2023-02-24T07:19:53;108.25;;;50.13;;
17595;SDS011;8916;47.086;15.920;2023-02-24T07:22:23;99.35;;;47.28;;
17595;SDS011;8916;47.086;15.920;2023-02-24T07:24:52;91.65;;;44.20;;
17595;SDS011;8916;47.086;15.920;2023-02-24T07:27:26;92.05;;;45.30;;
17595;SDS011;8916;47.086;15.920;2023-02-24T07:29:57;99.35;;;47.63;;
17595;SDS011;8916;47.086;15.920;2023-02-24T07:32:32;93.22;;;48.78;;
17595;SDS011;8916;47.086;15.920;2023-02-24T07:35:01;96.32;;;48.35;;
17595;SDS011;8916;47.086;15.920;2023-02-24T07:37:31;95.57;;;47.80;;
17595;SDS011;8916;47.086;15.920;2023-02-24T07:40:01;96.50;;;46.33;;
17595;SDS011;8916;47.086;15.920;2023-02-24T07:42:34;95.40;;;47.53;;
17595;SDS011;8916;47.086;15.920;2023-02-24T07:45:07;92.43;;;45.05;;
17595;SDS011;8916;47.086;15.920;2023-02-24T07:47:39;91.53;;;45.03;;
17595;SDS011;8916;47.086;15.920;2023-02-24T07:50:09;89.78;;;43.97;;
17595;SDS011;8916;47.086;15.920;2023-02-24T07:52:44;83.10;;;43.97;;
17595;SDS011;8916;47.086;15.920;2023-02-24T07:55:15;79.07;;;40.78;;
17595;SDS011;8916;47.086;15.920;2023-02-24T07:57:45;83.55;;;42.22;;
17595;SDS011;8916;47.086;15.920;2023-02-24T08:00:17;83.53;;;42.03;;
17595;SDS011;8916;47.086;15.920;2023-02-24T08:02:47;81.13;;;40.50;;
17595;SDS011;8916;47.086;15.920;2023-02-24T08:05:17;82.57;;;40.72;;
17595;SDS011;8916;47.086;15.920;2023-02-24T08:07:47;72.93;;;38.95;;
17595;SDS011;8916;47.086;15.920;2023-02-24T08:10:18;74.50;;;38.83;;
17595;SDS011;8916;47.086;15.920;2023-02-24T08:12:54;72.50;;;37.78;;
17595;SDS011;8916;47.086;15.920;2023-02-24T08:15:30;71.45;;;37.13;;
17595;SDS011;8916;47.086;15.920;2023-02-24T08:18:01;72.78;;;37.03;;
17595;SDS011;8916;47.086;15.920;2023-02-24T08:20:30;120.13;;;53.20;;
17595;SDS011;8916;47.086;15.920;2023-02-24T08:23:18;103.15;;;47.63;;
17595;SDS011;8916;47.086;15.920;2023-02-24T08:25:49;89.20;;;42.58;;
17595;SDS011;8916;47.086;15.920;2023-02-24T08:28:20;79.35;;;38.88;;
17595;SDS011;8916;47.086;15.920;2023-02-24T08:30:54;85.15;;;37.92;;
17595;SDS011;8916;47.086;15.920;2023-02-24T08:33:23;72.28;;;35.60;;
17595;SDS011;8916;47.086;15.920;2023-02-24T08:35:56;74.80;;;35.88;;
17595;SDS011;8916;47.086;15.920;2023-02-24T08:38:29;70.03;;;35.58;;
17595;SDS011;8916;47.086;15.920;2023-02-24T08:41:12;67.45;;;34.78;;
17595;SDS011;8916;47.086;15.920;2023-02-24T08:43:47;66.07;;;34.33;;
17595;SDS011;8916;47.086;15.920;2023-02-24T08:46:19;71.80;;;35.95;;
17595;SDS011;8916;47.086;15.920;2023-02-24T08:48:53;72.18;;;34.08;;
17595;SDS011;8916;47.086;15.920;2023-02-24T08:51:27;62.10;;;31.17;;
17595;SDS011;8916;47.086;15.920;2023-02-24T08:54:03;63.42;;;30.92;;
17595;SDS011;8916;47.086;15.920;2023-02-24T08:56:37;57.60;;;29.83;;
17595;SDS011;8916;47.086;15.920;2023-02-24T08:59:10;57.35;;;30.42;;
17595;SDS011;8916;47.086;15.920;2023-02-24T09:01:57;53.22;;;28.45;;
17595;SDS011;8916;47.086;15.920;2023-02-24T09:04:41;49.40;;;26.45;;
17595;SDS011;8916;47.086;15.920;2023-02-24T09:07:12;49.55;;;26.17;;
17595;SDS011;8916;47.086;15.920;2023-02-24T09:09:43;49.28;;;25.98;;
17595;SDS011;8916;47.086;15.920;2023-02-24T09:12:13;47.22;;;25.75;;
17595;SDS011;8916;47.086;15.920;2023-02-24T09:14:51;46.90;;;25.10;;
17595;SDS011;8916;47.086;15.920;2023-02-24T09:17:25;42.15;;;23.65;;
17595;SDS011;8916;47.086;15.920;2023-02-24T09:20:17;42.38;;;22.88;;
17595;SDS011;8916;47.086;15.920;2023-02-24T09:23:22;44.88;;;22.50;;
17595;SDS011;8916;47.086;15.920;2023-02-24T09:25:57;40.03;;;23.02;;
17595;SDS011;8916;47.086;15.920;2023-02-24T09:28:37;40.97;;;23.20;;
17595;SDS011;8916;47.086;15.920;2023-02-24T09:31:14;44.50;;;23.08;;
17595;SDS011;8916;47.086;15.920;2023-02-24T09:33:45;40.50;;;23.27;;
17595;SDS011;8916;47.086;15.920;2023-02-24T09:36:17;42.53;;;24.10;;
17595;SDS011;8916;47.086;15.920;2023-02-24T09:38:55;40.75;;;23.17;;
17595;SDS011;8916;47.086;15.920;2023-02-24T09:41:41;43.05;;;22.63;;
17595;SDS011;8916;47.086;15.920;2023-02-24T09:44:25;39.00;;;22.58;;
17595;SDS011;8916;47.086;15.920;2023-02-24T09:47:02;39.35;;;22.40;;
17595;SDS011;8916;47.086;15.920;2023-02-24T09:49:45;45.95;;;22.98;;
17595;SDS011;8916;47.086;15.920;2023-02-24T09:52:23;37.75;;;20.90;;
17595;SDS011;8916;47.086;15.920;2023-02-24T09:55:10;41.90;;;22.75;;
17595;SDS011;8916;47.086;15.920;2023-02-24T09:57:53;39.63;;;20.63;;
17595;SDS011;8916;47.086;15.920;2023-02-24T10:00:48;42.25;;;21.08;;
17595;SDS011;8916;47.086;15.920;2023-02-24T10:03:50;47.25;;;23.88;;
17595;SDS011;8916;47.086;15.920;2023-02-24T10:06:46;44.47;;;23.83;;
17595;SDS011;8916;47.086;15.920;2023-02-24T10:09:19;47.10;;;24.85;;
17595;SDS011;8916;47.086;15.920;2023-02-24T10:11:54;46.92;;;24.85;;
17595;SDS011;8916;47.086;15.920;2023-02-24T10:14:33;45.33;;;24.15;;
17595;SDS011;8916;47.086;15.920;2023-02-24T10:17:18;42.67;;;24.55;;
17595;SDS011;8916;47.086;15.920;2023-02-24T10:19:52;44.40;;;23.52;;
17595;SDS011;8916;47.086;15.920;2023-02-24T10:22:29;37.17;;;22.30;;
17595;SDS011;8916;47.086;15.920;2023-02-24T10:25:28;41.08;;;22.33;;
17595;SDS011;8916;47.086;15.920;2023-02-24T10:28:13;40.17;;;22.30;;
17595;SDS011;8916;47.086;15.920;2023-02-24T10:31:05;39.13;;;21.90;;
17595;SDS011;8916;47.086;15.920;2023-02-24T10:33:53;34.53;;;19.88;;
17595;SDS011;8916;47.086;15.920;2023-02-24T10:36:28;33.42;;;19.17;;
17595;SDS011;8916;47.086;15.920;2023-02-24T10:39:08;38.47;;;20.75;;
17595;SDS011;8916;47.086;15.920;2023-02-24T10:41:43;40.15;;;21.25;;
17595;SDS011;8916;47.086;15.920;2023-02-24T10:44:19;36.72;;;19.92;;
17595;SDS011;8916;47.086;15.920;2023-02-24T10:46:58;37.28;;;19.52;;
17595;SDS011;8916;47.086;15.920;2023-02-24T10:49:38;31.45;;;17.52;;
17595;SDS011;8916;47.086;15.920;2023-02-24T10:52:24;32.08;;;18.13;;
17595;SDS011;8916;47.086;15.920;2023-02-24T10:55:22;29.10;;;16.52;;
17595;SDS011;8916;47.086;15.920;2023-02-24T10:58:05;28.42;;;15.68;;
17595;SDS011;8916;47.086;15.920;2023-02-24T11:00:43;35.15;;;16.10;;
17595;SDS011;8916;47.086;15.920;2023-02-24T11:03:27;28.00;;;15.65;;
17595;SDS011;8916;47.086;15.920;2023-02-24T11:06:19;26.20;;;15.43;;
17595;SDS011;8916;47.086;15.920;2023-02-24T11:09:05;29.52;;;17.27;;
17595;SDS011;8916;47.086;15.920;2023-02-24T11:12:12;28.13;;;16.67;;
17595;SDS011;8916;47.086;15.920;2023-02-24T11:15:02;36.90;;;18.63;;
17595;SDS011;8916;47.086;15.920;2023-02-24T11:18:00;34.08;;;19.25;;
17595;SDS011;8916;47.086;15.920;2023-02-24T11:20:34;35.60;;;21.77;;
17595;SDS011;8916;47.086;15.920;2023-02-24T11:23:16;37.53;;;22.08;;
17595;SDS011;8916;47.086;15.920;2023-02-24T11:25:51;36.15;;;21.05;;
17595;SDS011;8916;47.086;15.920;2023-02-24T11:28:31;43.15;;;23.65;;
17595;SDS011;8916;47.086;15.920;2023-02-24T11:31:33;42.13;;;22.90;;
17595;SDS011;8916;47.086;15.920;2023-02-24T11:34:20;41.80;;;23.58;;
17595;SDS011;8916;47.086;15.920;2023-02-24T11:37:01;42.47;;;22.17;;
17595;SDS011;8916;47.086;15.920;2023-02-24T11:39:54;32.53;;;18.45;;
17595;SDS011;8916;47.086;15.920;2023-02-24T11:42:29;31.38;;;16.23;;
17595;SDS011;8916;47.086;15.920;2023-02-24T11:45:10;32.08;;;16.55;;
17595;SDS011;8916;47.086;15.920;2023-02-24T11:47:51;34.13;;;16.85;;
17595;SDS011;8916;47.086;15.920;2023-02-24T11:50:27;29.45;;;15.95;;
17595;SDS011;8916;47.086;15.920;2023-02-24T11:53:13;30.90;;;16.50;;
17595;SDS011;8916;47.086;15.920;2023-02-24T11:55:58;33.30;;;15.95;;
17595;SDS011;8916;47.086;15.920;2023-02-24T11:58:33;31.25;;;17.20;;
17595;SDS011;8916;47.086;15.920;2023-02-24T12:01:13;31.15;;;15.00;;
17595;SDS011;8916;47.086;15.920;2023-02-24T12:03:51;31.25;;;16.15;;
17595;SDS011;8916;47.086;15.920;2023-02-24T12:06:28;35.25;;;16.48;;
17595;SDS011;8916;47.086;15.920;2023-02-24T12:09:06;31.50;;;14.90;;
17595;SDS011;8916;47.086;15.920;2023-02-24T12:11:42;26.55;;;15.55;;
17595;SDS011;8916;47.086;15.920;2023-02-24T12:14:28;24.67;;;14.63;;
17595;SDS011;8916;47.086;15.920;2023-02-24T12:17:10;26.73;;;15.23;;
17595;SDS011;8916;47.086;15.920;2023-02-24T12:19:52;27.42;;;14.80;;
17595;SDS011;8916;47.086;15.920;2023-02-24T12:22:30;25.23;;;14.68;;
17595;SDS011;8916;47.086;15.920;2023-02-24T12:25:11;25.55;;;13.60;;
17595;SDS011;8916;47.086;15.920;2023-02-24T12:27:45;26.90;;;15.88;;
17595;SDS011;8916;47.086;15.920;2023-02-24T12:30:36;29.38;;;14.40;;
17595;SDS011;8916;47.086;15.920;2023-02-24T12:33:33;26.48;;;13.93;;
17595;SDS011;8916;47.086;15.920;2023-02-24T12:36:19;26.42;;;13.75;;
17595;SDS011;8916;47.086;15.920;2023-02-24T12:41:42;32.00;;;16.65;;
17595;SDS011;8916;47.086;15.920;2023-02-24T12:44:29;29.35;;;17.08;;
17595;SDS011;8916;47.086;15.920;2023-02-24T12:47:08;31.90;;;17.73;;
17595;SDS011;8916;47.086;15.920;2023-02-24T12:49:45;27.35;;;16.73;;
17595;SDS011;8916;47.086;15.920;2023-02-24T12:52:51;28.27;;;16.48;;
17595;SDS011;8916;47.086;15.920;2023-02-24T12:55:30;25.35;;;13.77;;
17595;SDS011;8916;47.086;15.920;2023-02-24T12:58:09;20.88;;;12.65;;
17595;SDS011;8916;47.086;15.920;2023-02-24T13:00:50;25.13;;;13.57;;
17595;SDS011;8916;47.086;15.920;2023-02-24T13:03:50;25.65;;;14.20;;
17595;SDS011;8916;47.086;15.920;2023-02-24T13:06:39;25.95;;;14.25;;
17595;SDS011;8916;47.086;15.920;2023-02-24T13:09:23;24.65;;;14.23;;
17595;SDS011;8916;47.086;15.920;2023-02-24T13:12:05;23.77;;;13.40;;
17595;SDS011;8916;47.086;15.920;2023-02-24T13:14:44;24.15;;;13.55;;
17595;SDS011;8916;47.086;15.920;2023-02-24T13:17:18;24.65;;;13.45;;
17595;SDS011;8916;47.086;15.920;2023-02-24T13:19:50;22.67;;;13.73;;
17595;SDS011;8916;47.086;15.920;2023-02-24T13:22:25;23.10;;;14.40;;
17595;SDS011;8916;47.086;15.920;2023-02-24T13:24:58;29.77;;;13.23;;
17595;SDS011;8916;47.086;15.920;2023-02-24T13:27:53;27.50;;;14.55;;
17595;SDS011;8916;47.086;15.920;2023-02-24T13:30:37;23.83;;;12.68;;
17595;SDS011;8916;47.086;15.920;2023-02-24T13:33:22;24.33;;;12.73;;
17595;SDS011;8916;47.086;15.920;2023-02-24T13:36:09;25.42;;;13.35;;
17595;SDS011;8916;47.086;15.920;2023-02-24T13:38:45;24.92;;;13.23;;
17595;SDS011;8916;47.086;15.920;2023-02-24T13:41:31;22.27;;;12.40;;
17595;SDS011;8916;47.086;15.920;2023-02-24T13:44:21;25.27;;;13.88;;
17595;SDS011;8916;47.086;15.920;2023-02-24T13:46:58;25.42;;;13.77;;
17595;SDS011;8916;47.086;15.920;2023-02-24T13:50:10;26.35;;;12.82;;
17595;SDS011;8916;47.086;15.920;2023-02-24T13:56:07;24.73;;;13.70;;
17595;SDS011;8916;47.086;15.920;2023-02-24T13:58:54;20.83;;;12.10;;
17595;SDS011;8916;47.086;15.920;2023-02-24T14:01:44;28.80;;;12.95;;
17595;SDS011;8916;47.086;15.920;2023-02-24T14:04:18;23.95;;;13.48;;
17595;SDS011;8916;47.086;15.920;2023-02-24T14:06:55;24.00;;;13.75;;
17595;SDS011;8916;47.086;15.920;2023-02-24T14:09:29;29.35;;;14.65;;
17595;SDS011;8916;47.086;15.920;2023-02-24T14:12:04;26.95;;;13.70;;
17595;SDS011;8916;47.086;15.920;2023-02-24T14:14:40;31.75;;;14.30;;
17595;SDS011;8916;47.086;15.920;2023-02-24T14:17:18;27.20;;;14.60;;
17595;SDS011;8916;47.086;15.920;2023-02-24T14:19:55;26.02;;;13.30;;
17595;SDS011;8916;47.086;15.920;2023-02-24T14:22:41;24.92;;;14.00;;
17595;SDS011;8916;47.086;15.920;2023-02-24T14:44:49;26.85;;;14.25;;
17595;SDS011;8916;47.086;15.920;2023-02-24T14:47:21;25.70;;;14.13;;
17595;SDS011;8916;47.086;15.920;2023-02-24T14:49:54;27.70;;;14.20;;
17595;SDS011;8916;47.086;15.920;2023-02-24T14:52:28;28.83;;;13.95;;
17595;SDS011;8916;47.086;15.920;2023-02-24T14:55:09;24.42;;;14.07;;
17595;SDS011;8916;47.086;15.920;2023-02-24T14:57:45;24.13;;;14.65;;
17595;SDS011;8916;47.086;15.920;2023-02-24T15:00:26;23.95;;;14.23;;
17595;SDS011;8916;47.086;15.920;2023-02-24T15:03:01;24.38;;;14.13;;
17595;SDS011;8916;47.086;15.920;2023-02-24T15:05:41;30.25;;;15.15;;
17595;SDS011;8916;47.086;15.920;2023-02-24T15:08:17;31.77;;;15.57;;
17595;SDS011;8916;47.086;15.920;2023-02-24T15:10:57;26.52;;;15.18;;
17595;SDS011;8916;47.086;15.920;2023-02-24T15:13:28;30.35;;;16.70;;
17595;SDS011;8916;47.086;15.920;2023-02-24T15:16:07;25.30;;;13.75;;
17595;SDS011;8916;47.086;15.920;2023-02-24T15:18:41;32.10;;;17.23;;
17595;SDS011;8916;47.086;15.920;2023-02-24T15:21:17;29.20;;;16.85;;
17595;SDS011;8916;47.086;15.920;2023-02-24T15:23:56;33.85;;;17.30;;
17595;SDS011;8916;47.086;15.920;2023-02-24T15:26:27;33.63;;;16.83;;
17595;SDS011;8916;47.086;15.920;2023-02-24T15:29:11;30.98;;;15.77;;
17595;SDS011;8916;47.086;15.920;2023-02-24T15:31:46;28.60;;;15.07;;
17595;SDS011;8916;47.086;15.920;2023-02-24T15:34:16;37.63;;;17.45;;
17595;SDS011;8916;47.086;15.920;2023-02-24T15:36:48;38.28;;;18.60;;
17595;SDS011;8916;47.086;15.920;2023-02-24T15:39:23;34.70;;;16.52;;
17595;SDS011;8916;47.086;15.920;2023-02-24T15:42:07;33.25;;;17.38;;
17595;SDS011;8916;47.086;15.920;2023-02-24T15:44:51;37.22;;;17.52;;